Flight Track Log - Related Links

Times and Time Zones

All times are in EDT time to prevent confusion due to time zone crossing. See the AAL1459 flight status page for this flight to view local times or setup timezone preferences in your user account.

Time Position Orientation Groundspeed Altitude Reporting Facility
EDT Latitude Longitude Course Direction KTS MPH feet Rate Location/Type
Mon 06:29:57 PM 41.9980 -87.9490 304° West 155 178 2,100  Level FlightAware ADS-B
Mon 06:30:22 PM 41.9960 -87.9750 264° West 183 211 2,500 982 Climbing FlightAware ADS-B
Mon 06:30:52 PM 41.9930 -88.0100 263° West 223 257 3,000 1,527 Climbing FlightAware ADS-B
Mon 06:31:17 PM 41.9910 -88.0500 266° West 247 284 3,900 2,291 Climbing FlightAware ADS-B
Mon 06:31:47 PM 42.0010 -88.0880 290° West 258 297 5,100 2,533 Climbing FlightAware ADS-B
Mon 06:32:02 PM 42.0170 -88.1070 319° Northwest 270 311 5,800 2,400 Climbing FlightAware ADS-B
Mon 06:32:32 PM 42.0460 -88.1360 323° Northwest 284 327 6,900 2,509 Climbing FlightAware ADS-B
Mon 06:32:57 PM 42.0770 -88.1670 323° Northwest 289 333 8,100 2,618 Climbing FlightAware ADS-B
Mon 06:33:27 PM 42.0880 -88.2130 288° West 268 308 9,300 2,914 Climbing FlightAware ADS-B
Mon 06:34:07 PM 42.0940 -88.2740 278° West 246 283 11,500 2,850 Climbing FlightAware ADS-B
Mon 06:34:47 PM 42.0980 -88.3340 275° West 242 278 13,100 1,482 Climbing FlightAware ADS-B
Mon 06:35:32 PM 42.1020 -88.4020 275° West 235 270 13,600 1,050 Climbing FlightAware ADS-B
Mon 06:36:07 PM 42.1040 -88.4580 273° West 259 298 14,500 1,520 Climbing FlightAware ADS-B
Mon 06:36:47 PM 42.1080 -88.5280 274° West 288 331 15,500 2,047 Climbing FlightAware ADS-B
Mon 06:37:32 PM 42.1100 -88.6110 272° West 291 335 17,400 1,976 Climbing FlightAware ADS-B
Mon 06:38:12 PM 42.1130 -88.6850 273° West 310 357 18,300 1,650 Climbing FlightAware ADS-B
Mon 06:38:52 PM 42.1150 -88.7620 272° West 320 368 19,600 1,835 Climbing FlightAware ADS-B
Mon 06:39:37 PM 42.1190 -88.8530 273° West 339 390 20,900 1,765 Climbing FlightAware ADS-B
Mon 06:40:17 PM 42.1220 -88.9390 273° West 351 404 22,100 1,906 Climbing FlightAware ADS-B
Mon 06:41:02 PM 42.1250 -89.0440 272° West 357 411 23,600 1,835 Climbing FlightAware ADS-B
Mon 06:41:42 PM 42.1270 -89.1220 272° West 361 415 24,700 1,835 Climbing FlightAware ADS-B
Mon 06:42:27 PM 42.1290 -89.2330 271° West 364 419 26,200 1,835 Climbing FlightAware ADS-B
Mon 06:43:07 PM 42.1300 -89.3180 271° West 364 419 27,300 1,575 Climbing FlightAware ADS-B
Mon 06:43:47 PM 42.1320 -89.4100 272° West 368 423 28,300 1,482 Climbing FlightAware ADS-B
Mon 06:44:32 PM 42.1320 -89.5160 270° West 373 429 29,400 1,425 Climbing FlightAware ADS-B
Mon 06:45:07 PM 42.1330 -89.5990 271° West 374 430 30,200 1,341 Climbing FlightAware ADS-B
Mon 06:45:57 PM 42.1330 -89.7130 270° West 376 433 31,300 1,400 Climbing FlightAware ADS-B
Mon 06:46:37 PM 42.1340 -89.8030 271° West 373 429 32,300 1,500 Climbing FlightAware ADS-B
Mon 06:47:17 PM 42.1360 -89.9000 272° West 368 423 33,300 1,412 Climbing FlightAware ADS-B
Mon 06:48:02 PM 42.1370 -90.0030 271° West 363 418 34,300 1,350 Climbing FlightAware ADS-B
Mon 06:48:37 PM 42.1380 -90.0790 271° West 359 413 35,100 1,271 Climbing FlightAware ADS-B
Mon 06:49:27 PM 42.1400 -90.1850 271° West 352 405 36,100 600 Climbing FlightAware ADS-B
Mon 06:50:07 PM 42.1440 -90.2750 273° West 355 409 36,000 -75 Descending FlightAware ADS-B
Mon 06:50:47 PM 42.1480 -90.3650 273° West 355 409 36,000  Level FlightAware ADS-B
Mon 06:51:32 PM 42.1510 -90.4620 272° West 355 409 36,000  Level FlightAware ADS-B
Mon 06:52:27 PM 42.1560 -90.5860 273° West 354 407 36,000  Level FlightAware ADS-B
Mon 06:53:12 PM 42.1600 -90.6880 273° West 353 406 36,000  Level FlightAware ADS-B
Mon 06:53:52 PM 42.1640 -90.7740 274° West 352 405 36,000  Level FlightAware ADS-B
Mon 06:54:27 PM 42.1660 -90.8450 272° West 350 403 36,000  Level FlightAware ADS-B
Mon 06:55:12 PM 42.1700 -90.9510 273° West 349 402 36,000  Level FlightAware ADS-B
Mon 06:55:52 PM 42.1730 -91.0210 273° West 348 400 36,000  Level FlightAware ADS-B
Mon 06:56:37 PM 42.1760 -91.1330 272° West 346 398 36,000  Level FlightAware ADS-B
Mon 06:57:22 PM 42.1790 -91.2290 272° West 345 397 36,000  Level FlightAware ADS-B
Mon 06:58:02 PM 42.1820 -91.3120 273° West 345 397 36,000  Level FlightAware ADS-B
Mon 06:58:47 PM 42.1850 -91.4040 273° West 344 396 36,000  Level FlightAware ADS-B
Mon 06:59:27 PM 42.1880 -91.4880 273° West 344 396 36,000  Level FlightAware ADS-B
Mon 07:00:12 PM 42.1910 -91.5870 272° West 344 396 36,000  Level FlightAware ADS-B
Mon 07:00:52 PM 42.1930 -91.6770 272° West 345 397 36,000  Level FlightAware ADS-B
Mon 07:01:32 PM 42.1960 -91.7550 273° West 345 397 36,000  Level FlightAware ADS-B
Mon 07:02:12 PM 42.1980 -91.8420 272° West 345 397 36,000  Level FlightAware ADS-B
Mon 07:02:57 PM 42.2010 -91.9450 272° West 346 398 36,000  Level FlightAware ADS-B
Mon 07:03:42 PM 42.2030 -92.0410 272° West 346 398 36,000  Level FlightAware ADS-B
Mon 07:04:22 PM 42.2060 -92.1250 273° West 345 397 36,000  Level FlightAware ADS-B
Mon 07:05:02 PM 42.2080 -92.2070 272° West 345 397 36,000  Level FlightAware ADS-B
Mon 07:05:47 PM 42.2100 -92.3080 272° West 345 397 36,000  Level FlightAware ADS-B
Mon 07:06:22 PM 42.2120 -92.3820 272° West 344 396 36,000  Level FlightAware ADS-B
Mon 07:07:07 PM 42.2130 -92.4740 271° West 344 396 36,000  Level FlightAware ADS-B
Mon 07:08:17 PM 42.2160 -92.6210 272° West 343 395 36,000  Level FlightAware ADS-B
Mon 07:09:02 PM 42.2190 -92.7210 272° West 341 392 36,000  Level FlightAware ADS-B
Mon 07:09:42 PM 42.2210 -92.8090 272° West 341 392 36,000  Level FlightAware ADS-B
Mon 07:10:27 PM 42.2220 -92.9030 271° West 341 392 36,000  Level FlightAware ADS-B
Mon 07:11:07 PM 42.2230 -92.9750 271° West 341 392 36,000  Level FlightAware ADS-B
Mon 07:11:47 PM 42.2240 -93.0480 271° West 341 392 36,000  Level FlightAware ADS-B
Mon 07:12:32 PM 42.2270 -93.1660 272° West 341 392 36,000  Level FlightAware ADS-B
Mon 07:13:07 PM 42.2280 -93.2380 271° West 341 392 36,000  Level FlightAware ADS-B
Mon 07:13:57 PM 42.2300 -93.3370 272° West 341 392 36,000  Level FlightAware ADS-B
Mon 07:14:37 PM 42.2310 -93.4340 271° West 342 394 36,000  Level FlightAware ADS-B
Mon 07:15:27 PM 42.2320 -93.5330 271° West 342 394 36,000  Level FlightAware ADS-B
Mon 07:16:17 PM 42.2340 -93.6240 272° West 342 394 36,000  Level FlightAware ADS-B
Mon 07:16:57 PM 42.2350 -93.7360 271° West 341 392 36,000  Level FlightAware ADS-B
Mon 07:17:37 PM 42.2350 -93.8130 270° West 341 392 36,000  Level FlightAware ADS-B
Mon 07:18:17 PM 42.2350 -93.8850 270° West 341 392 36,000  Level FlightAware ADS-B
Mon 07:18:57 PM 42.2350 -93.9580 270° West 341 392 36,000  Level FlightAware ADS-B
Mon 07:19:47 PM 42.2350 -94.0480 270° West 341 392 36,000  Level FlightAware ADS-B
Mon 07:20:27 PM 42.2350 -94.1210 270° West 341 392 36,000  Level FlightAware ADS-B
Mon 07:21:07 PM 42.2350 -94.1930 270° West 341 392 36,000  Level FlightAware ADS-B
Mon 07:21:47 PM 42.2350 -94.2650 270° West 341 392 36,000  Level FlightAware ADS-B
Mon 07:22:27 PM 42.2350 -94.3380 270° West 341 392 36,000  Level FlightAware ADS-B
Mon 07:23:17 PM 42.2350 -94.4290 270° West 341 392 36,000  Level FlightAware ADS-B
Mon 07:23:57 PM 42.2350 -94.5010 270° West 341 392 36,000  Level FlightAware ADS-B
Mon 07:24:37 PM 42.2350 -94.5730 270° West 341 392 36,000  Level FlightAware ADS-B
Mon 07:25:17 PM 42.2350 -94.6460 270° West 341 392 36,000  Level FlightAware ADS-B
Mon 07:25:57 PM 42.2350 -94.7180 270° West 341 392 36,000  Level FlightAware ADS-B
Mon 07:26:37 PM 42.2350 -94.7910 270° West 341 392 36,000  Level FlightAware ADS-B
Mon 07:27:47 PM 42.2422 -95.0961 270° West 338 389 36,000  Level Minneapolis Center
Mon 07:28:48 PM 42.2422 -95.2217 270° West 337 388 36,000  Level Minneapolis Center
Mon 07:29:50 PM 42.2417 -95.3464 270° West 334 384 36,000  Level Minneapolis Center
Mon 07:30:52 PM 42.2414 -95.4728 270° West 337 388 36,000  Level Minneapolis Center
Mon 07:31:53 PM 42.2406 -95.5961 270° West 333 383 36,000  Level Minneapolis Center
Mon 07:32:55 PM 42.2397 -95.7208 270° West 332 382 36,000  Level Minneapolis Center
Mon 07:33:57 PM 42.2392 -95.8689 270° West 330 380 36,000  Level Minneapolis Center
Mon 07:34:58 PM 42.2378 -95.9936 269° West 333 383 36,000  Level Minneapolis Center
Mon 07:36:00 PM 42.2372 -96.1178 270° West 333 383 36,000  Level Minneapolis Center
Mon 07:37:02 PM 42.2361 -96.2431 269° West 334 384 36,000  Level Minneapolis Center
Mon 07:38:04 PM 42.2339 -96.3686 269° West 336 387 36,000  Level Minneapolis Center
Mon 07:39:05 PM 42.2333 -96.4919 270° West 332 382 36,000  Level Minneapolis Center
Mon 07:40:07 PM 42.2311 -96.6158 269° West 333 383 36,000  Level Minneapolis Center
Mon 07:41:08 PM 42.2286 -96.7672 269° West 336 387 36,000  Level Minneapolis Center
Mon 07:42:10 PM 42.2269 -96.8925 269° West 336 387 36,000  Level Minneapolis Center
Mon 07:43:12 PM 42.2247 -97.0175 269° West 336 387 36,000  Level Minneapolis Center
Mon 07:44:13 PM 42.2236 -97.1422 269° West 334 384 36,000  Level Minneapolis Center
Mon 07:45:27 PM 42.2194 -97.2675 267° West 335 386 36,000  Level Minneapolis Center
Mon 07:46:29 PM 42.2169 -97.4156 269° West 333 383 36,000  Level Minneapolis Center
Mon 07:47:30 PM 42.2139 -97.5392 268° West 330 380 36,000  Level Minneapolis Center
Mon 07:48:32 PM 42.2117 -97.6625 269° West 330 380 36,000  Level Minneapolis Center
Mon 07:49:34 PM 42.2075 -97.8100 268° West 330 380 36,000  Level Minneapolis Center
Mon 07:50:35 PM 42.2053 -97.9392 269° West 333 383 36,000  Level Minneapolis Center
Mon 07:51:37 PM 42.2008 -98.0644 267° West 335 386 36,000  Level Minneapolis Center
Mon 07:52:38 PM 42.1972 -98.1906 268° West 337 388 36,000  Level Minneapolis Center
Mon 07:53:40 PM 42.1939 -98.3178 268° West 340 391 36,000  Level Minneapolis Center
Mon 07:54:41 PM 42.1908 -98.4458 268° West 342 394 36,000  Level Minneapolis Center
Mon 07:55:43 PM 42.1864 -98.5706 267° West 336 387 36,000  Level Minneapolis Center
Mon 07:56:44 PM 42.1833 -98.6978 268° West 341 392 36,000  Level Minneapolis Center
Mon 07:57:46 PM 42.1778 -98.8511 267° West 342 394 36,000  Level Minneapolis Center
Mon 07:58:47 PM 42.1728 -98.9786 267° West 343 395 36,000  Level Minneapolis Center
Mon 07:59:49 PM 42.1686 -99.1072 268° West 343 395 36,000  Level Minneapolis Center
Mon 08:01:03 PM 42.1642 -99.2378 267° West 349 402 36,000  Level Minneapolis Center
Mon 08:02:04 PM 42.1581 -99.3967 267° West 355 409 36,000  Level Minneapolis Center
Mon 08:02:30 PM 42.1550 -99.4522 266° West 360 414 36,000  Level Denver Center
Mon 08:03:31 PM 42.1497 -99.5872 267° West 362 417 36,000  Level Denver Center
Mon 08:04:33 PM 42.1433 -99.7403 267° West 363 418 36,000  Level Denver Center
Mon 08:05:35 PM 42.1372 -99.8733 267° West 371 427 36,000  Level Denver Center
Mon 08:06:36 PM 42.1308 -100.0267 267° West 369 425 36,000  Level Denver Center
Mon 08:07:38 PM 42.1258 -100.1589 267° West 371 427 36,000  Level Denver Center
Mon 08:08:14 PM 42.1214 -100.2489 266° West 372 428 36,000  Level Minneapolis Center
Mon 08:08:40 PM 42.1186 -100.3139 267° West 372 428 36,000  Level Denver Center
Mon 08:09:41 PM 42.1133 -100.4472 267° West 373 429 36,000  Level Denver Center
Mon 08:10:43 PM 42.1050 -100.6036 266° West 376 433 36,000  Level Denver Center
Mon 08:11:57 PM 42.0975 -100.7369 266° West 374 430 36,000  Level Denver Center
Mon 08:12:59 PM 42.0894 -100.9150 267° West 373 429 36,000  Level Denver Center
Mon 08:14:00 PM 42.0817 -101.0472 266° West 372 428 36,000  Level Denver Center
Mon 08:19:20 PM 42.0405 -101.7930 266° West 366 421 36,000  Level FlightAware ADS-B
Mon 08:19:52 PM 42.0363 -101.8640 265° West 366 421 36,000  Level FlightAware ADS-B
Mon 08:20:42 PM 42.0294 -101.9790 265° West 366 421 36,000  Level FlightAware ADS-B
Mon 08:21:13 PM 42.0251 -102.0470 265° West 368 423 36,000  Level FlightAware ADS-B
Mon 08:21:45 PM 42.0205 -102.1210 265° West 368 423 36,000  Level FlightAware ADS-B
Mon 08:22:15 PM 42.0161 -102.1900 265° West 370 426 36,000  Level FlightAware ADS-B
Mon 08:22:46 PM 42.0118 -102.2610 265° West 369 425 36,000  Level FlightAware ADS-B
Mon 08:23:17 PM 42.0074 -102.3310 265° West 370 426 36,000  Level FlightAware ADS-B
Mon 08:23:47 PM 42.0028 -102.4010 265° West 370 426 36,000  Level FlightAware ADS-B
Mon 08:24:18 PM 41.9982 -102.4710 265° West 370 426 36,000  Level FlightAware ADS-B
Mon 08:24:48 PM 41.9936 -102.5400 265° West 371 427 36,000  Level FlightAware ADS-B
Mon 08:25:19 PM 41.9889 -102.6110 265° West 371 427 36,000  Level FlightAware ADS-B
Mon 08:25:52 PM 41.9839 -102.6870 265° West 370 426 36,000  Level FlightAware ADS-B
Mon 08:26:02 PM 41.9834 -102.7080 268° West 370 426 36,000  Level FlightAware ADS-B
Mon 08:26:33 PM 41.9830 -102.7810 270° West 370 426 36,000  Level FlightAware ADS-B
Mon 08:27:04 PM 41.9826 -102.8500 270° West 368 423 36,000  Level FlightAware ADS-B
Mon 08:27:34 PM 41.9820 -102.9190 269° West 367 422 36,000  Level FlightAware ADS-B
Mon 08:28:04 PM 41.9813 -102.9880 269° West 365 420 36,000  Level FlightAware ADS-B
Mon 08:28:32 PM 41.9807 -103.0500 269° West 364 419 36,000  Level FlightAware ADS-B
Mon 08:29:02 PM 41.9800 -103.1190 269° West 362 417 36,000  Level FlightAware ADS-B
Mon 08:29:32 PM 41.9791 -103.1860 269° West 360 414 36,000  Level FlightAware ADS-B
Mon 08:30:02 PM 41.9783 -103.2530 269° West 359 413 36,000  Level FlightAware ADS-B
Mon 08:30:33 PM 41.9775 -103.3210 269° West 357 411 36,000  Level FlightAware ADS-B
Mon 08:31:03 PM 41.9767 -103.3880 269° West 356 410 36,000  Level FlightAware ADS-B
Mon 08:31:34 PM 41.9758 -103.4550 269° West 354 407 36,000  Level FlightAware ADS-B
Mon 08:32:05 PM 41.9749 -103.5230 269° West 353 406 36,000  Level FlightAware ADS-B
Mon 08:32:36 PM 41.9739 -103.5910 269° West 353 406 36,000  Level FlightAware ADS-B
Mon 08:33:11 PM 41.9728 -103.6670 269° West 352 405 36,000  Level FlightAware ADS-B
Mon 08:33:43 PM 41.9718 -103.7380 269° West 352 405 36,000  Level FlightAware ADS-B
Mon 08:34:13 PM 41.9707 -103.8040 269° West 353 406 36,000  Level FlightAware ADS-B
Mon 08:34:44 PM 41.9695 -103.8710 269° West 353 406 36,000  Level FlightAware ADS-B
Mon 08:35:15 PM 41.9683 -103.9380 269° West 353 406 36,000  Level FlightAware ADS-B
Mon 08:35:45 PM 41.9671 -104.0040 269° West 354 407 36,000  Level FlightAware ADS-B
Mon 08:36:16 PM 41.9659 -104.0710 269° West 353 406 36,000  Level FlightAware ADS-B
Mon 08:36:46 PM 41.9646 -104.1370 269° West 353 406 36,000  Level FlightAware ADS-B
Mon 08:37:16 PM 41.9633 -104.2040 269° West 352 405 36,000  Level FlightAware ADS-B
Mon 08:37:46 PM 41.9619 -104.2690 268° West 352 405 36,000  Level FlightAware ADS-B
Mon 08:38:17 PM 41.9605 -104.3350 268° West 350 403 36,000  Level FlightAware ADS-B
Mon 08:38:47 PM 41.9592 -104.4000 268° West 349 402 36,000  Level FlightAware ADS-B
Mon 08:39:17 PM 41.9578 -104.4650 268° West 348 400 36,000  Level FlightAware ADS-B
Mon 08:39:48 PM 41.9562 -104.5320 268° West 347 399 36,000  Level FlightAware ADS-B
Mon 08:40:19 PM 41.9546 -104.5990 268° West 346 398 36,000  Level FlightAware ADS-B
Mon 08:40:51 PM 41.9529 -104.6670 268° West 346 398 36,000  Level FlightAware ADS-B
Mon 08:41:21 PM 41.9513 -104.7320 268° West 347 399 36,000  Level FlightAware ADS-B
Mon 08:41:52 PM 41.9498 -104.7990 268° West 348 400 36,000  Level FlightAware ADS-B
Mon 08:42:24 PM 41.9480 -104.8680 268° West 349 402 36,000  Level FlightAware ADS-B
Mon 08:42:55 PM 41.9462 -104.9350 268° West 351 404 36,000  Level FlightAware ADS-B
Mon 08:43:25 PM 41.9444 -105.0000 268° West 352 405 36,000  Level FlightAware ADS-B
Mon 08:43:56 PM 41.9425 -105.0670 268° West 353 406 36,000  Level FlightAware ADS-B
Mon 08:44:27 PM 41.9407 -105.1350 268° West 356 410 36,000  Level FlightAware ADS-B
Mon 08:44:59 PM 41.9387 -105.2060 268° West 357 411 36,000  Level FlightAware ADS-B
Mon 08:45:47 PM 41.9350 -105.2950 267° West 357 411 36,000  Level FlightAware ADS-B
Mon 08:46:27 PM 41.9330 -105.3980 269° West 359 413 36,000  Level FlightAware ADS-B
Mon 08:47:17 PM 41.9300 -105.5080 268° West 358 412 36,000  Level FlightAware ADS-B
Mon 08:47:57 PM 41.9270 -105.5930 267° West 358 412 36,000  Level FlightAware ADS-B
Mon 08:48:42 PM 41.9240 -105.6950 268° West 358 412 36,000  Level FlightAware ADS-B
Mon 08:49:22 PM 41.9210 -105.7780 267° West 358 412 36,000  Level FlightAware ADS-B
Mon 08:50:02 PM 41.9180 -105.8730 268° West 357 411 36,000  Level FlightAware ADS-B
Mon 08:50:47 PM 41.9140 -105.9740 267° West 357 411 36,000  Level FlightAware ADS-B
Mon 08:51:27 PM 41.9110 -106.0600 267° West 355 409 36,000  Level FlightAware ADS-B
Mon 08:52:07 PM 41.9080 -106.1510 267° West 354 407 36,000  Level FlightAware ADS-B
Mon 08:52:52 PM 41.9040 -106.2470 267° West 352 405 36,000  Level FlightAware ADS-B
Mon 08:53:32 PM 41.9010 -106.3310 267° West 351 404 36,000  Level FlightAware ADS-B
Mon 08:54:12 PM 41.8980 -106.4170 267° West 353 406 36,000  Level FlightAware ADS-B
Mon 08:54:57 PM 41.8930 -106.5210 266° West 359 413 36,000  Level FlightAware ADS-B
Mon 08:55:37 PM 41.8900 -106.6010 267° West 360 414 36,000  Level FlightAware ADS-B
Mon 08:56:17 PM 41.8860 -106.6770 266° West 360 414 36,000  Level FlightAware ADS-B
Mon 08:57:17 PM 41.8800 -106.8290 267° West 365 420 36,000  Level FlightAware ADS-B
Mon 08:57:57 PM 41.8760 -106.9060 266° West 365 420 36,000  Level FlightAware ADS-B
Mon 08:58:37 PM 41.8720 -106.9830 266° West 365 420 36,000  Level FlightAware ADS-B
Mon 08:59:17 PM 41.8680 -107.0600 266° West 365 420 36,000  Level FlightAware ADS-B
Mon 08:59:57 PM 41.8640 -107.1370 266° West 365 420 36,000  Level FlightAware ADS-B
Mon 09:00:47 PM 41.8590 -107.2330 266° West 365 420 36,000  Level FlightAware ADS-B
Mon 09:01:27 PM 41.8550 -107.3100 266° West 365 420 36,000  Level FlightAware ADS-B
Mon 09:02:07 PM 41.8510 -107.3870 266° West 365 420 36,000  Level FlightAware ADS-B
Mon 09:02:47 PM 41.8470 -107.4640 266° West 365 420 36,000  Level FlightAware ADS-B
Mon 09:03:37 PM 41.8420 -107.5600 266° West 365 420 36,000  Level FlightAware ADS-B
Mon 09:04:17 PM 41.8380 -107.6370 266° West 365 420 36,000  Level FlightAware ADS-B
Mon 09:04:57 PM 41.8340 -107.7140 266° West 365 420 36,000  Level FlightAware ADS-B
Mon 09:05:37 PM 41.8300 -107.7900 266° West 365 420 36,000  Level FlightAware ADS-B
Mon 09:06:17 PM 41.8260 -107.8670 266° West 365 420 36,000  Level FlightAware ADS-B
Mon 09:06:45 PM 41.8169 -108.1325 266° West 372 428 36,000  Level Denver Center
Mon 09:07:12 PM 41.8142 -108.1986 267° West 371 427 36,000  Level Salt Lake Center
Mon 09:08:13 PM 41.8075 -108.3294 266° West 369 425 36,000  Level Salt Lake Center
Mon 09:09:14 PM 41.7992 -108.4817 266° West 369 425 36,000  Level Salt Lake Center
Mon 09:10:16 PM 41.7900 -108.6114 265° West 368 423 36,000  Level Salt Lake Center
Mon 09:11:17 PM 41.7811 -108.7644 266° West 371 427 36,000  Level Salt Lake Center
Mon 09:12:19 PM 41.7722 -108.8950 265° West 371 427 36,000  Level Salt Lake Center
Mon 09:13:20 PM 41.7644 -109.0253 265° West 370 426 36,000  Level Salt Lake Center
Mon 09:14:22 PM 41.7556 -109.1781 266° West 372 428 36,000  Level Salt Lake Center
Mon 09:15:23 PM 41.7475 -109.3086 265° West 372 428 36,000  Level Salt Lake Center
Mon 09:16:24 PM 41.7369 -109.4639 265° West 376 433 36,000  Level Salt Lake Center
Mon 09:17:26 PM 41.7275 -109.5961 265° West 377 434 36,000  Level Salt Lake Center
Mon 09:18:27 PM 41.7169 -109.7494 265° West 373 429 36,000  Level Salt Lake Center
Mon 09:19:29 PM 41.7083 -109.8814 265° West 374 430 36,000  Level Salt Lake Center
Mon 09:20:30 PM 41.6969 -110.0358 264° West 374 430 36,000  Level Salt Lake Center
Mon 09:21:32 PM 41.6875 -110.1681 265° West 375 432 36,000  Level Salt Lake Center
Mon 09:22:33 PM 41.6786 -110.3008 265° West 375 432 36,000  Level Salt Lake Center
Mon 09:28:02 PM 41.6180 -111.0910 265° West 383 441 36,000  Level FlightAware ADS-B
Mon 09:28:47 PM 41.6090 -111.1970 264° West 382 440 36,000  Level FlightAware ADS-B
Mon 09:29:27 PM 41.6020 -111.2890 264° West 382 440 36,000  Level FlightAware ADS-B
Mon 09:30:12 PM 41.5930 -111.3960 264° West 380 437 36,000  Level FlightAware ADS-B
Mon 09:30:52 PM 41.5860 -111.4810 264° West 380 437 36,000  Level FlightAware ADS-B
Mon 09:31:32 PM 41.5770 -111.5810 263° West 380 437 36,000  Level FlightAware ADS-B
Mon 09:32:17 PM 41.5680 -111.6860 263° West 380 437 36,000  Level FlightAware ADS-B
Mon 09:32:57 PM 41.5600 -111.7810 264° West 380 437 36,000  Level FlightAware ADS-B
Mon 09:33:42 PM 41.5510 -111.8870 264° West 379 436 36,000  Level FlightAware ADS-B
Mon 09:34:22 PM 41.5430 -111.9790 263° West 378 435 36,000  Level FlightAware ADS-B
Mon 09:35:02 PM 41.5350 -112.0690 263° West 378 435 36,000  Level FlightAware ADS-B
Mon 09:35:47 PM 41.5250 -112.1760 263° West 382 440 36,000  Level FlightAware ADS-B
Mon 09:36:27 PM 41.5170 -112.2710 264° West 384 442 36,000  Level FlightAware ADS-B
Mon 09:37:12 PM 41.5070 -112.3770 263° West 386 444 36,000  Level FlightAware ADS-B
Mon 09:37:52 PM 41.4980 -112.4710 263° West 386 444 36,000  Level FlightAware ADS-B
Mon 09:38:32 PM 41.4900 -112.5650 264° West 390 449 36,000  Level FlightAware ADS-B
Mon 09:39:17 PM 41.4790 -112.6730 262° West 392 451 36,000  Level FlightAware ADS-B
Mon 09:39:57 PM 41.4700 -112.7680 263° West 391 450 36,000  Level FlightAware ADS-B
Mon 09:40:42 PM 41.4590 -112.8760 262° West 385 443 36,000  Level FlightAware ADS-B
Mon 09:41:22 PM 41.4400 -112.9660 254° West 382 440 36,000  Level FlightAware ADS-B
Mon 09:42:02 PM 41.4210 -113.0570 254° West 381 438 36,000  Level FlightAware ADS-B
Mon 09:42:47 PM 41.4000 -113.1590 255° West 379 436 36,000  Level FlightAware ADS-B
Mon 09:43:27 PM 41.3810 -113.2490 254° West 380 437 36,000  Level FlightAware ADS-B
Mon 09:44:12 PM 41.3600 -113.3510 255° West 386 444 36,000  Level FlightAware ADS-B
Mon 09:44:52 PM 41.3410 -113.4440 255° West 387 445 36,000  Level FlightAware ADS-B
Mon 09:45:32 PM 41.3230 -113.5290 254° West 386 444 36,000  Level FlightAware ADS-B
Mon 09:46:17 PM 41.3000 -113.6360 254° West 386 444 36,000  Level FlightAware ADS-B
Mon 09:46:52 PM 41.2850 -113.7070 254° West 386 444 36,000  Level FlightAware ADS-B
Mon 09:47:42 PM 41.2660 -113.8040 255° West 386 444 36,000  Level FlightAware ADS-B
Mon 09:48:17 PM 41.2420 -113.9070 253° West 387 445 36,000  Level FlightAware ADS-B
Mon 09:49:07 PM 41.2150 -114.0310 254° West 389 448 36,000  Level FlightAware ADS-B
Mon 09:49:47 PM 41.1960 -114.1200 254° West 386 444 36,000  Level FlightAware ADS-B
Mon 09:50:32 PM 41.1730 -114.2230 254° West 384 442 36,000  Level FlightAware ADS-B
Mon 09:51:12 PM 41.1540 -114.3130 254° West 382 440 36,000  Level FlightAware ADS-B
Mon 09:51:52 PM 41.1350 -114.3960 253° West 380 437 36,000  Level FlightAware ADS-B
Mon 09:52:32 PM 41.1160 -114.4860 254° West 380 437 36,000  Level FlightAware ADS-B
Mon 09:53:17 PM 41.0930 -114.5900 254° West 383 441 36,000  Level FlightAware ADS-B
Mon 09:54:02 PM 41.0690 -114.6930 253° West 383 441 36,000  Level FlightAware ADS-B
Mon 09:54:42 PM 41.0490 -114.7860 254° West 384 442 36,000  Level FlightAware ADS-B
Mon 09:55:22 PM 41.0280 -114.8770 253° West 391 450 36,000  Level FlightAware ADS-B
Mon 09:55:57 PM 41.0100 -114.9590 254° West 391 450 36,000  Level FlightAware ADS-B
Mon 09:56:47 PM 40.9850 -115.0680 253° West 391 450 36,000  Level FlightAware ADS-B
Mon 09:57:32 PM 40.9640 -115.1590 253° West 392 451 36,000  Level FlightAware ADS-B
Mon 09:58:12 PM 40.9460 -115.2370 253° West 392 451 36,000  Level FlightAware ADS-B
Mon 09:58:52 PM 40.9280 -115.3150 253° West 392 451 36,000  Level FlightAware ADS-B
Mon 09:59:32 PM 40.9100 -115.3930 253° West 392 451 36,000  Level FlightAware ADS-B
Mon 10:00:12 PM 40.8920 -115.4710 253° West 392 451 36,000  Level FlightAware ADS-B
Mon 10:01:02 PM 40.8700 -115.5690 253° West 392 451 36,000  Level FlightAware ADS-B
Mon 10:01:42 PM 40.8520 -115.6470 253° West 392 451 36,000  Level FlightAware ADS-B
Mon 10:02:22 PM 40.8330 -115.7250 252° West 392 451 36,000  Level FlightAware ADS-B
Mon 10:03:02 PM 40.8150 -115.8030 253° West 392 451 36,000  Level FlightAware ADS-B
Mon 10:03:42 PM 40.7970 -115.8810 253° West 392 451 36,000  Level FlightAware ADS-B
Mon 10:04:32 PM 40.7750 -115.9780 253° West 392 451 36,000  Level FlightAware ADS-B
Mon 10:05:12 PM 40.7570 -116.0560 253° West 392 451 36,000  Level FlightAware ADS-B
Mon 10:05:52 PM 40.7390 -116.1340 253° West 392 451 36,000  Level FlightAware ADS-B
Mon 10:06:32 PM 40.7210 -116.2110 253° West 392 451 36,000  Level FlightAware ADS-B
Mon 10:07:28 PM 40.6478 -116.5114 253° West 387 445 36,000  Level Oakland Center
Mon 10:08:30 PM 40.6100 -116.6647 252° West 394 453 36,000  Level Oakland Center
Mon 10:09:31 PM 40.5792 -116.7953 253° West 395 455 36,000  Level Oakland Center
Mon 10:10:32 PM 40.5408 -116.9483 252° West 400 460 36,000  Level Oakland Center
Mon 10:11:33 PM 40.5083 -117.0797 252° West 399 459 36,000  Level Oakland Center
Mon 10:12:34 PM 40.4758 -117.2100 252° West 398 458 36,000  Level Oakland Center
Mon 10:13:40 PM 40.4364 -117.3661 252° West 402 463 36,000  Level Salt Lake Center
Mon 10:14:42 PM 40.3978 -117.5194 252° West 398 458 36,000  Level Salt Lake Center
Mon 10:15:43 PM 40.3644 -117.6506 252° West 396 456 36,000  Level Salt Lake Center
Mon 10:16:45 PM 40.3256 -117.8014 251° West 392 451 36,000  Level Salt Lake Center
Mon 10:17:39 PM 40.2992 -117.9092 252° West 391 450 36,000  Level Oakland Center
Mon 10:18:40 PM 40.2656 -118.0406 252° West 395 455 36,000 -344 Level Oakland Center
Mon 10:19:41 PM 40.2236 -118.2014 251° West 391 450 35,300 -787 Descending Oakland Center
Mon 10:20:42 PM 40.1881 -118.3381 251° West 396 456 34,400 -934 Descending Oakland Center
Mon 10:21:43 PM 40.1517 -118.4778 251° West 406 467 33,400 -1,672 Descending Oakland Center
Mon 10:22:44 PM 40.1019 -118.6069 243° Southwest 403 464 31,000 -2,732 Descending Oakland Center
Mon 10:23:46 PM 40.0167 -118.7125 223° Southwest 421 484 27,800 -2,803 Descending Oakland Center
Mon 10:24:46 PM 39.9347 -118.8128 223° Southwest 409 471 25,300 -2,479 Descending Oakland Center
Mon 10:25:47 PM 39.8550 -118.9094 223° Southwest 397 457 22,800 -2,410 Descending Oakland Center
Mon 10:26:48 PM 39.7783 -119.0025 223° Southwest 383 441 20,400 -2,361 Descending Oakland Center
Mon 10:27:49 PM 39.7050 -119.0906 223° Southwest 368 423 18,000 -2,164 Descending Oakland Center
Mon 10:28:50 PM 39.6336 -119.1775 223° Southwest 358 412 16,000 -1,143 Descending Oakland Center
Mon 10:34:07 PM 39.4210 -119.5820 223° Southwest 268 308 10,800 -975 Descending FlightAware ADS-B
Mon 10:34:47 PM 39.4040 -119.6320 246° West 238 274 10,200 -857 Descending FlightAware ADS-B
Mon 10:35:17 PM 39.3970 -119.6580 251° West 229 264 9,800 -1,309 Descending FlightAware ADS-B
Mon 10:35:42 PM 39.3890 -119.6900 252° West 215 247 9,000 -1,600 Descending FlightAware ADS-B
Mon 10:36:02 PM 39.3850 -119.7080 254° West 206 237 8,600 -840 Descending FlightAware ADS-B
Mon 10:36:32 PM 39.3780 -119.7410 255° West 198 228 8,300 -1,333 Descending FlightAware ADS-B
Mon 10:36:47 PM 39.3940 -119.7460 346° North 167 192 7,600 -1,680 Descending FlightAware ADS-B
Mon 10:37:22 PM 39.4190 -119.7640 331° Northwest 140 161 6,900 -1,120 Descending FlightAware ADS-B
Mon 10:38:02 PM 39.4350 -119.7660 354° North 147 169 6,200 -1,015 Descending FlightAware ADS-B
Mon 10:38:27 PM 39.4460 -119.7670 356° North 156 180 5,800 -960 Descending FlightAware ADS-B

Login

Don't have an account? Register now (free) for customized features, flight alerts, and more!